Finike, Turkey
Current Conditions -  °F | °C
As of 5:50 AM on Thursday 27 Nov 2014 (Local Time) from LTAI Reporting Station
Clear Clear  
Wind Chill:   Ceiling: Unl
Heat Index:   Visibility: 6mi
Dew Point:   Wind: 10mph
Humidity: 54%   Direction: 310°NW
Pressure: 29.97"   Gusts: NA
Location:  36.3°N, 30.14°E
Report Text: LTAI 270250Z 31009KT CAVOK 09/M00 Q1015 NOSIG
Loading
Personal Weather Stations






























Interactive Weather Map New forecast layout! Learn more

10-Day Weather Forecast

Advertisements
Track Severe Weather on mobile